Aviation Digital Data Service (ADDS)

Output produced by METARs form (0509 UTC 21 January 2019)
found at http://www.aviationweather.gov/metar/data/
 
METAR text: UTNN 210430Z 21006KT 8000 -SNRA OVC005 01/00 Q1029 R33/290050 NOSIG RMK BASE500
Conditions at: UTNN (NUKUS/KARAKALPAK, UZ) observed 0430 UTC 21 January 2019
Temperature: 1.0°C (34°F)
Dewpoint: 0.0°C (32°F) [RH = 93%]
Pressure (altimeter): 30.38 inches Hg (1029.0 mb)
Winds: from the SSW (210 degrees) at 7 MPH (6 knots; 3.1 m/s)
Visibility: 5 miles ( 8 km)
Ceiling: 500 feet AGL
Clouds: overcast cloud deck at 500 feet AGL
Weather: -SN -RA  (light snow, light rain)

METAR text: UTNN 210400Z 21004KT 8000 -SNRA OVC005 01/00 Q1028 R33/290050 NOSIG RMK BASE500
Conditions at: UTNN (NUKUS/KARAKALPAK, UZ) observed 0400 UTC 21 January 2019
Temperature: 1.0°C (34°F)
Dewpoint: 0.0°C (32°F) [RH = 93%]
Pressure (altimeter): 30.35 inches Hg (1028.0 mb)
Winds: from the SSW (210 degrees) at 5 MPH (4 knots; 2.1 m/s)
Visibility: 5 miles ( 8 km)
Ceiling: 500 feet AGL
Clouds: overcast cloud deck at 500 feet AGL
Weather: -SN -RA  (light snow, light rain)

METAR text: UTNN 210330Z 21004KT 9999 -SNRA OVC011 01/M00 Q1028 R33/290050 NOSIG
Conditions at: UTNN (NUKUS/KARAKALPAK, UZ) observed 0330 UTC 21 January 2019
Temperature: 1.0°C (34°F)
Dewpoint: 0.0°C (32°F) [RH = 93%]
Pressure (altimeter): 30.35 inches Hg (1028.0 mb)
Winds: from the SSW (210 degrees) at 5 MPH (4 knots; 2.1 m/s)
Visibility: 6 or more miles (10+ km)
Ceiling: 1100 feet AGL
Clouds: overcast cloud deck at 1100 feet AGL
Weather: -SN -RA  (light snow, light rain)

METAR text: UTNN 210300Z 22006KT 9999 OVC015 01/M00 Q1028 R33/290050 NOSIG
Conditions at: UTNN (NUKUS/KARAKALPAK, UZ) observed 0300 UTC 21 January 2019
Temperature: 1.0°C (34°F)
Dewpoint: 0.0°C (32°F) [RH = 93%]
Pressure (altimeter): 30.35 inches Hg (1028.0 mb)
Winds: from the SW (220 degrees) at 7 MPH (6 knots; 3.1 m/s)
Visibility: 6 or more miles (10+ km)
Ceiling: 1500 feet AGL
Clouds: overcast cloud deck at 1500 feet AGL
Weather: no significant weather observed at this time

METAR text: UTNN 210230Z 22006KT 9999 OVC017 01/M00 Q1027 R33/290050 NOSIG
Conditions at: UTNN (NUKUS/KARAKALPAK, UZ) observed 0230 UTC 21 January 2019
Temperature: 1.0°C (34°F)
Dewpoint: 0.0°C (32°F) [RH = 93%]
Pressure (altimeter): 30.32 inches Hg (1027.0 mb)
Winds: from the SW (220 degrees) at 7 MPH (6 knots; 3.1 m/s)
Visibility: 6 or more miles (10+ km)
Ceiling: 1700 feet AGL
Clouds: overcast cloud deck at 1700 feet AGL
Weather: no significant weather observed at this time

METAR text: UTNN 210200Z 22004KT 9999 OVC018 01/M00 Q1027 R33/290050 NOSIG
Conditions at: UTNN (NUKUS/KARAKALPAK, UZ) observed 0200 UTC 21 January 2019
Temperature: 1.0°C (34°F)
Dewpoint: 0.0°C (32°F) [RH = 93%]
Pressure (altimeter): 30.32 inches Hg (1027.0 mb)
Winds: from the SW (220 degrees) at 5 MPH (4 knots; 2.1 m/s)
Visibility: 6 or more miles (10+ km)
Ceiling: 1800 feet AGL
Clouds: overcast cloud deck at 1800 feet AGL
Weather: no significant weather observed at this time

METAR text: UTNN 210130Z 22006KT 9999 -SNRA OVC018 01/M00 Q1027 R33/290050 NOSIG
Conditions at: UTNN (NUKUS/KARAKALPAK, UZ) observed 0130 UTC 21 January 2019
Temperature: 1.0°C (34°F)
Dewpoint: 0.0°C (32°F) [RH = 93%]
Pressure (altimeter): 30.32 inches Hg (1027.0 mb)
Winds: from the SW (220 degrees) at 7 MPH (6 knots; 3.1 m/s)
Visibility: 6 or more miles (10+ km)
Ceiling: 1800 feet AGL
Clouds: overcast cloud deck at 1800 feet AGL
Weather: -SN -RA  (light snow, light rain)

METAR text: UTNN 210100Z 22006KT 9999 OVC020 01/M00 Q1026 R33/290050 NOSIG
Conditions at: UTNN (NUKUS/KARAKALPAK, UZ) observed 0100 UTC 21 January 2019
Temperature: 1.0°C (34°F)
Dewpoint: 0.0°C (32°F) [RH = 93%]
Pressure (altimeter): 30.30 inches Hg (1026.0 mb)
Winds: from the SW (220 degrees) at 7 MPH (6 knots; 3.1 m/s)
Visibility: 6 or more miles (10+ km)
Ceiling: 2000 feet AGL
Clouds: overcast cloud deck at 2000 feet AGL
Weather: no significant weather observed at this time

METAR text: UTNN 210030Z 22006KT 9999 OVC020 01/M00 Q1026 R33/290050 NOSIG
Conditions at: UTNN (NUKUS/KARAKALPAK, UZ) observed 0030 UTC 21 January 2019
Temperature: 1.0°C (34°F)
Dewpoint: 0.0°C (32°F) [RH = 93%]
Pressure (altimeter): 30.30 inches Hg (1026.0 mb)
Winds: from the SW (220 degrees) at 7 MPH (6 knots; 3.1 m/s)
Visibility: 6 or more miles (10+ km)
Ceiling: 2000 feet AGL
Clouds: overcast cloud deck at 2000 feet AGL
Weather: no significant weather observed at this time

METAR text: UTNN 210000Z 22006KT 9999 OVC020 01/M01 Q1026 R33/290050 NOSIG
Conditions at: UTNN (NUKUS/KARAKALPAK, UZ) observed 0000 UTC 21 January 2019
Temperature: 1.0°C (34°F)
Dewpoint: -1.0°C (30°F) [RH = 86%]
Pressure (altimeter): 30.30 inches Hg (1026.0 mb)
Winds: from the SW (220 degrees) at 7 MPH (6 knots; 3.1 m/s)
Visibility: 6 or more miles (10+ km)
Ceiling: 2000 feet AGL
Clouds: overcast cloud deck at 2000 feet AGL
Weather: no significant weather observed at this time

METAR text: UTNN 202330Z 23006KT 9999 OVC020 01/M01 Q1026 R33/290050 NOSIG
Conditions at: UTNN (NUKUS/KARAKALPAK, UZ) observed 2330 UTC 20 January 2019
Temperature: 1.0°C (34°F)
Dewpoint: -1.0°C (30°F) [RH = 86%]
Pressure (altimeter): 30.30 inches Hg (1026.0 mb)
Winds: from the SW (230 degrees) at 7 MPH (6 knots; 3.1 m/s)
Visibility: 6 or more miles (10+ km)
Ceiling: 2000 feet AGL
Clouds: overcast cloud deck at 2000 feet AGL
Weather: no significant weather observed at this time

METAR text: UTNN 202300Z 22006KT 9999 OVC013 01/M01 Q1026 R33/290050 NOSIG
Conditions at: UTNN (NUKUS/KARAKALPAK, UZ) observed 2300 UTC 20 January 2019
Temperature: 1.0°C (34°F)
Dewpoint: -1.0°C (30°F) [RH = 86%]
Pressure (altimeter): 30.30 inches Hg (1026.0 mb)
Winds: from the SW (220 degrees) at 7 MPH (6 knots; 3.1 m/s)
Visibility: 6 or more miles (10+ km)
Ceiling: 1300 feet AGL
Clouds: overcast cloud deck at 1300 feet AGL
Weather: no significant weather observed at this time

METAR text: UTNN 202230Z 23006KT 9999 OVC011 01/M00 Q1026 R33/290050 NOSIG
Conditions at: UTNN (NUKUS/KARAKALPAK, UZ) observed 2230 UTC 20 January 2019
Temperature: 1.0°C (34°F)
Dewpoint: 0.0°C (32°F) [RH = 93%]
Pressure (altimeter): 30.30 inches Hg (1026.0 mb)
Winds: from the SW (230 degrees) at 7 MPH (6 knots; 3.1 m/s)
Visibility: 6 or more miles (10+ km)
Ceiling: 1100 feet AGL
Clouds: overcast cloud deck at 1100 feet AGL
Weather: no significant weather observed at this time

METAR text: UTNN 202200Z 24008KT 9999 OVC011 01/M00 Q1025 R33/290050 NOSIG
Conditions at: UTNN (NUKUS/KARAKALPAK, UZ) observed 2200 UTC 20 January 2019
Temperature: 1.0°C (34°F)
Dewpoint: 0.0°C (32°F) [RH = 93%]
Pressure (altimeter): 30.27 inches Hg (1025.0 mb)
Winds: from the WSW (240 degrees) at 9 MPH (8 knots; 4.1 m/s)
Visibility: 6 or more miles (10+ km)
Ceiling: 1100 feet AGL
Clouds: overcast cloud deck at 1100 feet AGL
Weather: no significant weather observed at this time

METAR text: UTNN 202130Z 24010KT 9999 OVC011 01/M00 Q1025 R33/290050 NOSIG
Conditions at: UTNN (NUKUS/KARAKALPAK, UZ) observed 2130 UTC 20 January 2019
Temperature: 1.0°C (34°F)
Dewpoint: 0.0°C (32°F) [RH = 93%]
Pressure (altimeter): 30.27 inches Hg (1025.0 mb)
Winds: from the WSW (240 degrees) at 12 MPH (10 knots; 5.1 m/s)
Visibility: 6 or more miles (10+ km)
Ceiling: 1100 feet AGL
Clouds: overcast cloud deck at 1100 feet AGL
Weather: no significant weather observed at this time

METAR text: UTNN 202100Z 24008KT 9999 OVC009 01/M00 Q1025 R33/290050 NOSIG
Conditions at: UTNN (NUKUS/KARAKALPAK, UZ) observed 2100 UTC 20 January 2019
Temperature: 1.0°C (34°F)
Dewpoint: 0.0°C (32°F) [RH = 93%]
Pressure (altimeter): 30.27 inches Hg (1025.0 mb)
Winds: from the WSW (240 degrees) at 9 MPH (8 knots; 4.1 m/s)
Visibility: 6 or more miles (10+ km)
Ceiling: 900 feet AGL
Clouds: overcast cloud deck at 900 feet AGL
Weather: no significant weather observed at this time

METAR text: UTNN 202030Z 24008KT 9999 OVC009 01/M00 Q1024 R33/290050 NOSIG
Conditions at: UTNN (NUKUS/KARAKALPAK, UZ) observed 2030 UTC 20 January 2019
Temperature: 1.0°C (34°F)
Dewpoint: 0.0°C (32°F) [RH = 93%]
Pressure (altimeter): 30.24 inches Hg (1024.0 mb)
Winds: from the WSW (240 degrees) at 9 MPH (8 knots; 4.1 m/s)
Visibility: 6 or more miles (10+ km)
Ceiling: 900 feet AGL
Clouds: overcast cloud deck at 900 feet AGL
Weather: no significant weather observed at this time

METAR text: UTNN 202000Z 25008KT 9999 OVC009 01/M00 Q1024 R33/290050 NOSIG
Conditions at: UTNN (NUKUS/KARAKALPAK, UZ) observed 2000 UTC 20 January 2019
Temperature: 1.0°C (34°F)
Dewpoint: 0.0°C (32°F) [RH = 93%]
Pressure (altimeter): 30.24 inches Hg (1024.0 mb)
Winds: from the WSW (250 degrees) at 9 MPH (8 knots; 4.1 m/s)
Visibility: 6 or more miles (10+ km)
Ceiling: 900 feet AGL
Clouds: overcast cloud deck at 900 feet AGL
Weather: no significant weather observed at this time

METAR text: UTNN 201930Z 23008KT 9999 OVC009 01/M00 Q1024 R33/290050 NOSIG
Conditions at: UTNN (NUKUS/KARAKALPAK, UZ) observed 1930 UTC 20 January 2019
Temperature: 1.0°C (34°F)
Dewpoint: 0.0°C (32°F) [RH = 93%]
Pressure (altimeter): 30.24 inches Hg (1024.0 mb)
Winds: from the SW (230 degrees) at 9 MPH (8 knots; 4.1 m/s)
Visibility: 6 or more miles (10+ km)
Ceiling: 900 feet AGL
Clouds: overcast cloud deck at 900 feet AGL
Weather: no significant weather observed at this time

METAR text: UTNN 201900Z 22008KT 9999 OVC009 01/M01 Q1024 R33/290050 NOSIG
Conditions at: UTNN (NUKUS/KARAKALPAK, UZ) observed 1900 UTC 20 January 2019
Temperature: 1.0°C (34°F)
Dewpoint: -1.0°C (30°F) [RH = 86%]
Pressure (altimeter): 30.24 inches Hg (1024.0 mb)
Winds: from the SW (220 degrees) at 9 MPH (8 knots; 4.1 m/s)
Visibility: 6 or more miles (10+ km)
Ceiling: 900 feet AGL
Clouds: overcast cloud deck at 900 feet AGL
Weather: no significant weather observed at this time

METAR text: UTNN 201830Z 22006KT 8000 OVC008 00/M01 Q1024 R33/290050 NOSIG
Conditions at: UTNN (NUKUS/KARAKALPAK, UZ) observed 1830 UTC 20 January 2019
Temperature: 0.0°C (32°F)
Dewpoint: -1.0°C (30°F) [RH = 93%]
Pressure (altimeter): 30.24 inches Hg (1024.0 mb)
Winds: from the SW (220 degrees) at 7 MPH (6 knots; 3.1 m/s)
Visibility: 5 miles ( 8 km)
Ceiling: 800 feet AGL
Clouds: overcast cloud deck at 800 feet AGL
Weather: no significant weather observed at this time

METAR text: UTNN 201800Z 22008KT 8000 OVC008 00/M01 Q1023 R33/290050 NOSIG
Conditions at: UTNN (NUKUS/KARAKALPAK, UZ) observed 1800 UTC 20 January 2019
Temperature: 0.0°C (32°F)
Dewpoint: -1.0°C (30°F) [RH = 93%]
Pressure (altimeter): 30.21 inches Hg (1023.0 mb)
Winds: from the SW (220 degrees) at 9 MPH (8 knots; 4.1 m/s)
Visibility: 5 miles ( 8 km)
Ceiling: 800 feet AGL
Clouds: overcast cloud deck at 800 feet AGL
Weather: no significant weather observed at this time

METAR text: UTNN 201730Z 22006KT 8000 OVC008 00/M01 Q1023 R33/290050 NOSIG
Conditions at: UTNN (NUKUS/KARAKALPAK, UZ) observed 1730 UTC 20 January 2019
Temperature: 0.0°C (32°F)
Dewpoint: -1.0°C (30°F) [RH = 93%]
Pressure (altimeter): 30.21 inches Hg (1023.0 mb)
Winds: from the SW (220 degrees) at 7 MPH (6 knots; 3.1 m/s)
Visibility: 5 miles ( 8 km)
Ceiling: 800 feet AGL
Clouds: overcast cloud deck at 800 feet AGL
Weather: no significant weather observed at this time

METAR text: UTNN 201700Z 21008KT 8000 OVC008 M00/M01 Q1023 R33/290050 NOSIG
Conditions at: UTNN (NUKUS/KARAKALPAK, UZ) observed 1700 UTC 20 January 2019
Temperature: 0.0°C (32°F)
Dewpoint: -1.0°C (30°F) [RH = 93%]
Pressure (altimeter): 30.21 inches Hg (1023.0 mb)
Winds: from the SSW (210 degrees) at 9 MPH (8 knots; 4.1 m/s)
Visibility: 5 miles ( 8 km)
Ceiling: 800 feet AGL
Clouds: overcast cloud deck at 800 feet AGL
Weather: no significant weather observed at this time

METAR text: UTNN 201630Z 21006KT 8000 -SN OVC008 M01/M02 Q1023 R33/290050 NOSIG
Conditions at: UTNN (NUKUS/KARAKALPAK, UZ) observed 1630 UTC 20 January 2019
Temperature: -1.0°C (30°F)
Dewpoint: -2.0°C (28°F) [RH = 93%]
Pressure (altimeter): 30.21 inches Hg (1023.0 mb)
Winds: from the SSW (210 degrees) at 7 MPH (6 knots; 3.1 m/s)
Visibility: 5 miles ( 8 km)
Ceiling: 800 feet AGL
Clouds: overcast cloud deck at 800 feet AGL
Weather: -SN  (light snow)

METAR text: UTNN 201600Z 20006KT 9999 -SN OVC008 M01/M02 Q1023 R33/290050 NOSIG
Conditions at: UTNN (NUKUS/KARAKALPAK, UZ) observed 1600 UTC 20 January 2019
Temperature: -1.0°C (30°F)
Dewpoint: -2.0°C (28°F) [RH = 93%]
Pressure (altimeter): 30.21 inches Hg (1023.0 mb)
Winds: from the SSW (200 degrees) at 7 MPH (6 knots; 3.1 m/s)
Visibility: 6 or more miles (10+ km)
Ceiling: 800 feet AGL
Clouds: overcast cloud deck at 800 feet AGL
Weather: -SN  (light snow)

METAR text: UTNN 201530Z 20006KT 9999 -SN OVC008 M01/M02 Q1022 R33/290050 NOSIG
Conditions at: UTNN (NUKUS/KARAKALPAK, UZ) observed 1530 UTC 20 January 2019
Temperature: -1.0°C (30°F)
Dewpoint: -2.0°C (28°F) [RH = 93%]
Pressure (altimeter): 30.18 inches Hg (1022.0 mb)
Winds: from the SSW (200 degrees) at 7 MPH (6 knots; 3.1 m/s)
Visibility: 6 or more miles (10+ km)
Ceiling: 800 feet AGL
Clouds: overcast cloud deck at 800 feet AGL
Weather: -SN  (light snow)

METAR text: UTNN 201500Z 21006KT 9999 OVC010 M01/M02 Q1022 R33/290050 NOSIG
Conditions at: UTNN (NUKUS/KARAKALPAK, UZ) observed 1500 UTC 20 January 2019
Temperature: -1.0°C (30°F)
Dewpoint: -2.0°C (28°F) [RH = 93%]
Pressure (altimeter): 30.18 inches Hg (1022.0 mb)
Winds: from the SSW (210 degrees) at 7 MPH (6 knots; 3.1 m/s)
Visibility: 6 or more miles (10+ km)
Ceiling: 1000 feet AGL
Clouds: overcast cloud deck at 1000 feet AGL
Weather: no significant weather observed at this time

METAR text: UTNN 201430Z 22006KT 9999 OVC015 M01/M03 Q1022 R33/290050 NOSIG
Conditions at: UTNN (NUKUS/KARAKALPAK, UZ) observed 1430 UTC 20 January 2019
Temperature: -1.0°C (30°F)
Dewpoint: -3.0°C (27°F) [RH = 86%]
Pressure (altimeter): 30.18 inches Hg (1022.0 mb)
Winds: from the SW (220 degrees) at 7 MPH (6 knots; 3.1 m/s)
Visibility: 6 or more miles (10+ km)
Ceiling: 1500 feet AGL
Clouds: overcast cloud deck at 1500 feet AGL
Weather: no significant weather observed at this time

METAR text: UTNN 201400Z 22008KT 9999 OVC015 M01/M03 Q1022 R33/290050 NOSIG
Conditions at: UTNN (NUKUS/KARAKALPAK, UZ) observed 1400 UTC 20 January 2019
Temperature: -1.0°C (30°F)
Dewpoint: -3.0°C (27°F) [RH = 86%]
Pressure (altimeter): 30.18 inches Hg (1022.0 mb)
Winds: from the SW (220 degrees) at 9 MPH (8 knots; 4.1 m/s)
Visibility: 6 or more miles (10+ km)
Ceiling: 1500 feet AGL
Clouds: overcast cloud deck at 1500 feet AGL
Weather: no significant weather observed at this time

METAR text: UTNN 201330Z 23008KT 9999 OVC015 M01/M03 Q1021 R33/290050 NOSIG
Conditions at: UTNN (NUKUS/KARAKALPAK, UZ) observed 1330 UTC 20 January 2019
Temperature: -1.0°C (30°F)
Dewpoint: -3.0°C (27°F) [RH = 86%]
Pressure (altimeter): 30.15 inches Hg (1021.0 mb)
Winds: from the SW (230 degrees) at 9 MPH (8 knots; 4.1 m/s)
Visibility: 6 or more miles (10+ km)
Ceiling: 1500 feet AGL
Clouds: overcast cloud deck at 1500 feet AGL
Weather: no significant weather observed at this time

METAR text: UTNN 201300Z 24008KT 9999 OVC009 M02/M03 Q1021 R33/290050 NOSIG
Conditions at: UTNN (NUKUS/KARAKALPAK, UZ) observed 1300 UTC 20 January 2019
Temperature: -2.0°C (28°F)
Dewpoint: -3.0°C (27°F) [RH = 93%]
Pressure (altimeter): 30.15 inches Hg (1021.0 mb)
Winds: from the WSW (240 degrees) at 9 MPH (8 knots; 4.1 m/s)
Visibility: 6 or more miles (10+ km)
Ceiling: 900 feet AGL
Clouds: overcast cloud deck at 900 feet AGL
Weather: no significant weather observed at this time

METAR text: UTNN 201230Z 25010KT 9999 OVC009 M02/M04 Q1021 R33/290050 NOSIG
Conditions at: UTNN (NUKUS/KARAKALPAK, UZ) observed 1230 UTC 20 January 2019
Temperature: -2.0°C (28°F)
Dewpoint: -4.0°C (25°F) [RH = 86%]
Pressure (altimeter): 30.15 inches Hg (1021.0 mb)
Winds: from the WSW (250 degrees) at 12 MPH (10 knots; 5.1 m/s)
Visibility: 6 or more miles (10+ km)
Ceiling: 900 feet AGL
Clouds: overcast cloud deck at 900 feet AGL
Weather: no significant weather observed at this time

METAR text: UTNN 201200Z 24010KT 9999 OVC009 M02/M03 Q1020 R33/290050 NOSIG
Conditions at: UTNN (NUKUS/KARAKALPAK, UZ) observed 1200 UTC 20 January 2019
Temperature: -2.0°C (28°F)
Dewpoint: -3.0°C (27°F) [RH = 93%]
Pressure (altimeter): 30.12 inches Hg (1020.0 mb)
Winds: from the WSW (240 degrees) at 12 MPH (10 knots; 5.1 m/s)
Visibility: 6 or more miles (10+ km)
Ceiling: 900 feet AGL
Clouds: overcast cloud deck at 900 feet AGL
Weather: no significant weather observed at this time

METAR text: UTNN 201130Z 24010KT 9999 OVC008 M01/M03 Q1020 R33/290050 NOSIG
Conditions at: UTNN (NUKUS/KARAKALPAK, UZ) observed 1130 UTC 20 January 2019
Temperature: -1.0°C (30°F)
Dewpoint: -3.0°C (27°F) [RH = 86%]
Pressure (altimeter): 30.12 inches Hg (1020.0 mb)
Winds: from the WSW (240 degrees) at 12 MPH (10 knots; 5.1 m/s)
Visibility: 6 or more miles (10+ km)
Ceiling: 800 feet AGL
Clouds: overcast cloud deck at 800 feet AGL
Weather: no significant weather observed at this time

METAR text: UTNN 201100Z 25010KT 9999 OVC008 M01/M03 Q1020 R33/290050 NOSIG
Conditions at: UTNN (NUKUS/KARAKALPAK, UZ) observed 1100 UTC 20 January 2019
Temperature: -1.0°C (30°F)
Dewpoint: -3.0°C (27°F) [RH = 86%]
Pressure (altimeter): 30.12 inches Hg (1020.0 mb)
Winds: from the WSW (250 degrees) at 12 MPH (10 knots; 5.1 m/s)
Visibility: 6 or more miles (10+ km)
Ceiling: 800 feet AGL
Clouds: overcast cloud deck at 800 feet AGL
Weather: no significant weather observed at this time

METAR text: UTNN 201030Z 25012KT 9999 OVC008 M01/M03 Q1019 R33/290050 NOSIG
Conditions at: UTNN (NUKUS/KARAKALPAK, UZ) observed 1030 UTC 20 January 2019
Temperature: -1.0°C (30°F)
Dewpoint: -3.0°C (27°F) [RH = 86%]
Pressure (altimeter): 30.09 inches Hg (1019.0 mb)
Winds: from the WSW (250 degrees) at 14 MPH (12 knots; 6.2 m/s)
Visibility: 6 or more miles (10+ km)
Ceiling: 800 feet AGL
Clouds: overcast cloud deck at 800 feet AGL
Weather: no significant weather observed at this time

METAR text: UTNN 201000Z 25012KT 9999 OVC008 M01/M03 Q1019 R33/290050 NOSIG
Conditions at: UTNN (NUKUS/KARAKALPAK, UZ) observed 1000 UTC 20 January 2019
Temperature: -1.0°C (30°F)
Dewpoint: -3.0°C (27°F) [RH = 86%]
Pressure (altimeter): 30.09 inches Hg (1019.0 mb)
Winds: from the WSW (250 degrees) at 14 MPH (12 knots; 6.2 m/s)
Visibility: 6 or more miles (10+ km)
Ceiling: 800 feet AGL
Clouds: overcast cloud deck at 800 feet AGL
Weather: no significant weather observed at this time

METAR text: UTNN 200930Z 25010KT 9999 OVC009 M01/M03 Q1019 R33/490231 NOSIG
Conditions at: UTNN (NUKUS/KARAKALPAK, UZ) observed 0930 UTC 20 January 2019
Temperature: -1.0°C (30°F)
Dewpoint: -3.0°C (27°F) [RH = 86%]
Pressure (altimeter): 30.09 inches Hg (1019.0 mb)
Winds: from the WSW (250 degrees) at 12 MPH (10 knots; 5.1 m/s)
Visibility: 6 or more miles (10+ km)
Ceiling: 900 feet AGL
Clouds: overcast cloud deck at 900 feet AGL
Weather: no significant weather observed at this time

METAR text: UTNN 200900Z 25012KT 9999 OVC009 M01/M02 Q1018 R33/490231 NOSIG
Conditions at: UTNN (NUKUS/KARAKALPAK, UZ) observed 0900 UTC 20 January 2019
Temperature: -1.0°C (30°F)
Dewpoint: -2.0°C (28°F) [RH = 93%]
Pressure (altimeter): 30.06 inches Hg (1018.0 mb)
Winds: from the WSW (250 degrees) at 14 MPH (12 knots; 6.2 m/s)
Visibility: 6 or more miles (10+ km)
Ceiling: 900 feet AGL
Clouds: overcast cloud deck at 900 feet AGL
Weather: no significant weather observed at this time

METAR text: UTNN 200830Z 25012KT 9999 OVC009 M01/M02 Q1018 R33/490231 NOSIG
Conditions at: UTNN (NUKUS/KARAKALPAK, UZ) observed 0830 UTC 20 January 2019
Temperature: -1.0°C (30°F)
Dewpoint: -2.0°C (28°F) [RH = 93%]
Pressure (altimeter): 30.06 inches Hg (1018.0 mb)
Winds: from the WSW (250 degrees) at 14 MPH (12 knots; 6.2 m/s)
Visibility: 6 or more miles (10+ km)
Ceiling: 900 feet AGL
Clouds: overcast cloud deck at 900 feet AGL
Weather: no significant weather observed at this time

METAR text: UTNN 200800Z 25012KT 9999 OVC009 M01/M02 Q1018 R33/490231 NOSIG
Conditions at: UTNN (NUKUS/KARAKALPAK, UZ) observed 0800 UTC 20 January 2019
Temperature: -1.0°C (30°F)
Dewpoint: -2.0°C (28°F) [RH = 93%]
Pressure (altimeter): 30.06 inches Hg (1018.0 mb)
Winds: from the WSW (250 degrees) at 14 MPH (12 knots; 6.2 m/s)
Visibility: 6 or more miles (10+ km)
Ceiling: 900 feet AGL
Clouds: overcast cloud deck at 900 feet AGL
Weather: no significant weather observed at this time

METAR text: UTNN 200730Z 25012KT 9999 OVC009 M01/M03 Q1018 R33/490231 NOSIG
Conditions at: UTNN (NUKUS/KARAKALPAK, UZ) observed 0730 UTC 20 January 2019
Temperature: -1.0°C (30°F)
Dewpoint: -3.0°C (27°F) [RH = 86%]
Pressure (altimeter): 30.06 inches Hg (1018.0 mb)
Winds: from the WSW (250 degrees) at 14 MPH (12 knots; 6.2 m/s)
Visibility: 6 or more miles (10+ km)
Ceiling: 900 feet AGL
Clouds: overcast cloud deck at 900 feet AGL
Weather: no significant weather observed at this time

METAR text: UTNN 200700Z 25012KT 9999 OVC009 M01/M03 Q1018 R33/490231 NOSIG
Conditions at: UTNN (NUKUS/KARAKALPAK, UZ) observed 0700 UTC 20 January 2019
Temperature: -1.0°C (30°F)
Dewpoint: -3.0°C (27°F) [RH = 86%]
Pressure (altimeter): 30.06 inches Hg (1018.0 mb)
Winds: from the WSW (250 degrees) at 14 MPH (12 knots; 6.2 m/s)
Visibility: 6 or more miles (10+ km)
Ceiling: 900 feet AGL
Clouds: overcast cloud deck at 900 feet AGL
Weather: no significant weather observed at this time

METAR text: UTNN 200630Z 25010KT 9999 OVC009 M01/M03 Q1018 R33/490231 NOSIG
Conditions at: UTNN (NUKUS/KARAKALPAK, UZ) observed 0630 UTC 20 January 2019
Temperature: -1.0°C (30°F)
Dewpoint: -3.0°C (27°F) [RH = 86%]
Pressure (altimeter): 30.06 inches Hg (1018.0 mb)
Winds: from the WSW (250 degrees) at 12 MPH (10 knots; 5.1 m/s)
Visibility: 6 or more miles (10+ km)
Ceiling: 900 feet AGL
Clouds: overcast cloud deck at 900 feet AGL
Weather: no significant weather observed at this time

METAR text: UTNN 200600Z 25010KT 9999 -SN OVC009 M01/M03 Q1017 R33/490231 NOSIG
Conditions at: UTNN (NUKUS/KARAKALPAK, UZ) observed 0600 UTC 20 January 2019
Temperature: -1.0°C (30°F)
Dewpoint: -3.0°C (27°F) [RH = 86%]
Pressure (altimeter): 30.03 inches Hg (1017.0 mb)
Winds: from the WSW (250 degrees) at 12 MPH (10 knots; 5.1 m/s)
Visibility: 6 or more miles (10+ km)
Ceiling: 900 feet AGL
Clouds: overcast cloud deck at 900 feet AGL
Weather: -SN  (light snow)

METAR text: UTNN 200530Z 25010KT 9999 OVC027 M01/M03 Q1016 R33/490231 NOSIG
Conditions at: UTNN (NUKUS/KARAKALPAK, UZ) observed 0530 UTC 20 January 2019
Temperature: -1.0°C (30°F)
Dewpoint: -3.0°C (27°F) [RH = 86%]
Pressure (altimeter): 30.00 inches Hg (1016.0 mb)
Winds: from the WSW (250 degrees) at 12 MPH (10 knots; 5.1 m/s)
Visibility: 6 or more miles (10+ km)
Ceiling: 2700 feet AGL
Clouds: overcast cloud deck at 2700 feet AGL
Weather: no significant weather observed at this time

METAR text: UTNN 200500Z 24010KT 9999 OVC027 M01/M03 Q1016 R33/490231 NOSIG
Conditions at: UTNN (NUKUS/KARAKALPAK, UZ) observed 0500 UTC 20 January 2019
Temperature: -1.0°C (30°F)
Dewpoint: -3.0°C (27°F) [RH = 86%]
Pressure (altimeter): 30.00 inches Hg (1016.0 mb)
Winds: from the WSW (240 degrees) at 12 MPH (10 knots; 5.1 m/s)
Visibility: 6 or more miles (10+ km)
Ceiling: 2700 feet AGL
Clouds: overcast cloud deck at 2700 feet AGL
Weather: no significant weather observed at this time

METAR text: UTNN 200430Z 25010KT 9999 OVC026 M01/M03 Q1016 R33/490231 NOSIG
Conditions at: UTNN (NUKUS/KARAKALPAK, UZ) observed 0430 UTC 20 January 2019
Temperature: -1.0°C (30°F)
Dewpoint: -3.0°C (27°F) [RH = 86%]
Pressure (altimeter): 30.00 inches Hg (1016.0 mb)
Winds: from the WSW (250 degrees) at 12 MPH (10 knots; 5.1 m/s)
Visibility: 6 or more miles (10+ km)
Ceiling: 2600 feet AGL
Clouds: overcast cloud deck at 2600 feet AGL
Weather: no significant weather observed at this time

METAR text: UTNN 200400Z 24010KT 9999 OVC009 M01/M02 Q1015 R33/490231 NOSIG
Conditions at: UTNN (NUKUS/KARAKALPAK, UZ) observed 0400 UTC 20 January 2019
Temperature: -1.0°C (30°F)
Dewpoint: -2.0°C (28°F) [RH = 93%]
Pressure (altimeter): 29.97 inches Hg (1015.0 mb)
Winds: from the WSW (240 degrees) at 12 MPH (10 knots; 5.1 m/s)
Visibility: 6 or more miles (10+ km)
Ceiling: 900 feet AGL
Clouds: overcast cloud deck at 900 feet AGL
Weather: no significant weather observed at this time

METAR text: UTNN 200330Z 24010KT 9999 -SN OVC007 M02/M03 Q1015 R33/490231 NOSIG
Conditions at: UTNN (NUKUS/KARAKALPAK, UZ) observed 0330 UTC 20 January 2019
Temperature: -2.0°C (28°F)
Dewpoint: -3.0°C (27°F) [RH = 93%]
Pressure (altimeter): 29.97 inches Hg (1015.0 mb)
Winds: from the WSW (240 degrees) at 12 MPH (10 knots; 5.1 m/s)
Visibility: 6 or more miles (10+ km)
Ceiling: 700 feet AGL
Clouds: overcast cloud deck at 700 feet AGL
Weather: -SN  (light snow)

METAR text: UTNN 200300Z 24008KT 9999 -SN OVC007 M02/M03 Q1014 R33/490031 NOSIG
Conditions at: UTNN (NUKUS/KARAKALPAK, UZ) observed 0300 UTC 20 January 2019
Temperature: -2.0°C (28°F)
Dewpoint: -3.0°C (27°F) [RH = 93%]
Pressure (altimeter): 29.94 inches Hg (1014.0 mb)
Winds: from the WSW (240 degrees) at 9 MPH (8 knots; 4.1 m/s)
Visibility: 6 or more miles (10+ km)
Ceiling: 700 feet AGL
Clouds: overcast cloud deck at 700 feet AGL
Weather: -SN  (light snow)

METAR text: UTNN 200230Z 24008KT 9999 -SN OVC010 M02/M03 Q1014 R33/490031 NOSIG
Conditions at: UTNN (NUKUS/KARAKALPAK, UZ) observed 0230 UTC 20 January 2019
Temperature: -2.0°C (28°F)
Dewpoint: -3.0°C (27°F) [RH = 93%]
Pressure (altimeter): 29.94 inches Hg (1014.0 mb)
Winds: from the WSW (240 degrees) at 9 MPH (8 knots; 4.1 m/s)
Visibility: 6 or more miles (10+ km)
Ceiling: 1000 feet AGL
Clouds: overcast cloud deck at 1000 feet AGL
Weather: -SN  (light snow)

METAR text: UTNN 200200Z 24008KT 9999 -SN OVC009 M02/M03 Q1014 R33/490031 NOSIG
Conditions at: UTNN (NUKUS/KARAKALPAK, UZ) observed 0200 UTC 20 January 2019
Temperature: -2.0°C (28°F)
Dewpoint: -3.0°C (27°F) [RH = 93%]
Pressure (altimeter): 29.94 inches Hg (1014.0 mb)
Winds: from the WSW (240 degrees) at 9 MPH (8 knots; 4.1 m/s)
Visibility: 6 or more miles (10+ km)
Ceiling: 900 feet AGL
Clouds: overcast cloud deck at 900 feet AGL
Weather: -SN  (light snow)

METAR text: UTNN 200130Z 25008KT 9999 -SN OVC009 M02/M03 Q1013 R33/490231 NOSIG
Conditions at: UTNN (NUKUS/KARAKALPAK, UZ) observed 0130 UTC 20 January 2019
Temperature: -2.0°C (28°F)
Dewpoint: -3.0°C (27°F) [RH = 93%]
Pressure (altimeter): 29.91 inches Hg (1013.0 mb)
Winds: from the WSW (250 degrees) at 9 MPH (8 knots; 4.1 m/s)
Visibility: 6 or more miles (10+ km)
Ceiling: 900 feet AGL
Clouds: overcast cloud deck at 900 feet AGL
Weather: -SN  (light snow)

METAR text: UTNN 200100Z 25008KT 9999 -SN OVC009 M02/M03 Q1013 R33/490231 NOSIG
Conditions at: UTNN (NUKUS/KARAKALPAK, UZ) observed 0100 UTC 20 January 2019
Temperature: -2.0°C (28°F)
Dewpoint: -3.0°C (27°F) [RH = 93%]
Pressure (altimeter): 29.91 inches Hg (1013.0 mb)
Winds: from the WSW (250 degrees) at 9 MPH (8 knots; 4.1 m/s)
Visibility: 6 or more miles (10+ km)
Ceiling: 900 feet AGL
Clouds: overcast cloud deck at 900 feet AGL
Weather: -SN  (light snow)

METAR text: UTNN 200030Z 23008KT 9999 -SN OVC009 M02/M03 Q1013 R33/490231 NOSIG
Conditions at: UTNN (NUKUS/KARAKALPAK, UZ) observed 0030 UTC 20 January 2019
Temperature: -2.0°C (28°F)
Dewpoint: -3.0°C (27°F) [RH = 93%]
Pressure (altimeter): 29.91 inches Hg (1013.0 mb)
Winds: from the SW (230 degrees) at 9 MPH (8 knots; 4.1 m/s)
Visibility: 6 or more miles (10+ km)
Ceiling: 900 feet AGL
Clouds: overcast cloud deck at 900 feet AGL
Weather: -SN  (light snow)

METAR text: UTNN 200000Z 24008KT 9999 -SN OVC009 M02/M03 Q1012 R33/490231 NOSIG
Conditions at: UTNN (NUKUS/KARAKALPAK, UZ) observed 0000 UTC 20 January 2019
Temperature: -2.0°C (28°F)
Dewpoint: -3.0°C (27°F) [RH = 93%]
Pressure (altimeter): 29.88 inches Hg (1012.0 mb)
Winds: from the WSW (240 degrees) at 9 MPH (8 knots; 4.1 m/s)
Visibility: 6 or more miles (10+ km)
Ceiling: 900 feet AGL
Clouds: overcast cloud deck at 900 feet AGL
Weather: -SN  (light snow)

METAR text: UTNN 192330Z 24006KT 9999 OVC009 M02/M03 Q1012 R33/490231 NOSIG
Conditions at: UTNN (NUKUS/KARAKALPAK, UZ) observed 2330 UTC 19 January 2019
Temperature: -2.0°C (28°F)
Dewpoint: -3.0°C (27°F) [RH = 93%]
Pressure (altimeter): 29.88 inches Hg (1012.0 mb)
Winds: from the WSW (240 degrees) at 7 MPH (6 knots; 3.1 m/s)
Visibility: 6 or more miles (10+ km)
Ceiling: 900 feet AGL
Clouds: overcast cloud deck at 900 feet AGL
Weather: no significant weather observed at this time

METAR text: UTNN 192300Z 25006KT 9999 -SN OVC009 M02/M03 Q1012 R33/490231 NOSIG
Conditions at: UTNN (NUKUS/KARAKALPAK, UZ) observed 2300 UTC 19 January 2019
Temperature: -2.0°C (28°F)
Dewpoint: -3.0°C (27°F) [RH = 93%]
Pressure (altimeter): 29.88 inches Hg (1012.0 mb)
Winds: from the WSW (250 degrees) at 7 MPH (6 knots; 3.1 m/s)
Visibility: 6 or more miles (10+ km)
Ceiling: 900 feet AGL
Clouds: overcast cloud deck at 900 feet AGL
Weather: -SN  (light snow)

METAR text: UTNN 192230Z 26006KT 9999 -SN OVC007 M02/M03 Q1012 R33/490231 NOSIG
Conditions at: UTNN (NUKUS/KARAKALPAK, UZ) observed 2230 UTC 19 January 2019
Temperature: -2.0°C (28°F)
Dewpoint: -3.0°C (27°F) [RH = 93%]
Pressure (altimeter): 29.88 inches Hg (1012.0 mb)
Winds: from the W (260 degrees) at 7 MPH (6 knots; 3.1 m/s)
Visibility: 6 or more miles (10+ km)
Ceiling: 700 feet AGL
Clouds: overcast cloud deck at 700 feet AGL
Weather: -SN  (light snow)

METAR text: UTNN 192200Z 26008KT 8000 -SN OVC007 M02/M03 Q1012 R33/490231 NOSIG
Conditions at: UTNN (NUKUS/KARAKALPAK, UZ) observed 2200 UTC 19 January 2019
Temperature: -2.0°C (28°F)
Dewpoint: -3.0°C (27°F) [RH = 93%]
Pressure (altimeter): 29.88 inches Hg (1012.0 mb)
Winds: from the W (260 degrees) at 9 MPH (8 knots; 4.1 m/s)
Visibility: 5 miles ( 8 km)
Ceiling: 700 feet AGL
Clouds: overcast cloud deck at 700 feet AGL
Weather: -SN  (light snow)

METAR text: UTNN 192130Z 25006KT 8000 -SN OVC007 M02/M03 Q1011 R33/490231 NOSIG
Conditions at: UTNN (NUKUS/KARAKALPAK, UZ) observed 2130 UTC 19 January 2019
Temperature: -2.0°C (28°F)
Dewpoint: -3.0°C (27°F) [RH = 93%]
Pressure (altimeter): 29.85 inches Hg (1011.0 mb)
Winds: from the WSW (250 degrees) at 7 MPH (6 knots; 3.1 m/s)
Visibility: 5 miles ( 8 km)
Ceiling: 700 feet AGL
Clouds: overcast cloud deck at 700 feet AGL
Weather: -SN  (light snow)

METAR text: UTNN 192100Z 23006KT 9999 -SN OVC008 M02/M03 Q1011 R33/490231 NOSIG
Conditions at: UTNN (NUKUS/KARAKALPAK, UZ) observed 2100 UTC 19 January 2019
Temperature: -2.0°C (28°F)
Dewpoint: -3.0°C (27°F) [RH = 93%]
Pressure (altimeter): 29.85 inches Hg (1011.0 mb)
Winds: from the SW (230 degrees) at 7 MPH (6 knots; 3.1 m/s)
Visibility: 6 or more miles (10+ km)
Ceiling: 800 feet AGL
Clouds: overcast cloud deck at 800 feet AGL
Weather: -SN  (light snow)

METAR text: UTNN 192030Z 23006KT 9999 -SN OVC008 M02/M03 Q1011 R33/490231 NOSIG
Conditions at: UTNN (NUKUS/KARAKALPAK, UZ) observed 2030 UTC 19 January 2019
Temperature: -2.0°C (28°F)
Dewpoint: -3.0°C (27°F) [RH = 93%]
Pressure (altimeter): 29.85 inches Hg (1011.0 mb)
Winds: from the SW (230 degrees) at 7 MPH (6 knots; 3.1 m/s)
Visibility: 6 or more miles (10+ km)
Ceiling: 800 feet AGL
Clouds: overcast cloud deck at 800 feet AGL
Weather: -SN  (light snow)

METAR text: UTNN 192000Z 22006KT 9999 -SN OVC009 M02/M03 Q1011 R33/490231 NOSIG
Conditions at: UTNN (NUKUS/KARAKALPAK, UZ) observed 2000 UTC 19 January 2019
Temperature: -2.0°C (28°F)
Dewpoint: -3.0°C (27°F) [RH = 93%]
Pressure (altimeter): 29.85 inches Hg (1011.0 mb)
Winds: from the SW (220 degrees) at 7 MPH (6 knots; 3.1 m/s)
Visibility: 6 or more miles (10+ km)
Ceiling: 900 feet AGL
Clouds: overcast cloud deck at 900 feet AGL
Weather: -SN  (light snow)

METAR text: UTNN 191930Z 24008KT 9999 -SN OVC008 M02/M03 Q1010 R15/490231 NOSIG
Conditions at: UTNN (NUKUS/KARAKALPAK, UZ) observed 1930 UTC 19 January 2019
Temperature: -2.0°C (28°F)
Dewpoint: -3.0°C (27°F) [RH = 93%]
Pressure (altimeter): 29.82 inches Hg (1010.0 mb)
Winds: from the WSW (240 degrees) at 9 MPH (8 knots; 4.1 m/s)
Visibility: 6 or more miles (10+ km)
Ceiling: 800 feet AGL
Clouds: overcast cloud deck at 800 feet AGL
Weather: -SN  (light snow)

METAR text: UTNN 191900Z 24008KT 8000 -SN OVC008 M02/M03 Q1010 R15/490231 NOSIG
Conditions at: UTNN (NUKUS/KARAKALPAK, UZ) observed 1900 UTC 19 January 2019
Temperature: -2.0°C (28°F)
Dewpoint: -3.0°C (27°F) [RH = 93%]
Pressure (altimeter): 29.82 inches Hg (1010.0 mb)
Winds: from the WSW (240 degrees) at 9 MPH (8 knots; 4.1 m/s)
Visibility: 5 miles ( 8 km)
Ceiling: 800 feet AGL
Clouds: overcast cloud deck at 800 feet AGL
Weather: -SN  (light snow)

METAR text: UTNN 191830Z 23008KT 5000 -SN BR OVC007 M02/M03 Q1010 R15/490231 NOSIG
Conditions at: UTNN (NUKUS/KARAKALPAK, UZ) observed 1830 UTC 19 January 2019
Temperature: -2.0°C (28°F)
Dewpoint: -3.0°C (27°F) [RH = 93%]
Pressure (altimeter): 29.82 inches Hg (1010.0 mb)
Winds: from the SW (230 degrees) at 9 MPH (8 knots; 4.1 m/s)
Visibility: 3 miles ( 5 km)
Ceiling: 700 feet AGL
Clouds: overcast cloud deck at 700 feet AGL
Weather: -SN BR  (light snow, mist)

METAR text: UTNN 191800Z 21008KT 4500 -SN BR OVC007 M02/M03 Q1010 R15/490231 NOSIG
Conditions at: UTNN (NUKUS/KARAKALPAK, UZ) observed 1800 UTC 19 January 2019
Temperature: -2.0°C (28°F)
Dewpoint: -3.0°C (27°F) [RH = 93%]
Pressure (altimeter): 29.82 inches Hg (1010.0 mb)
Winds: from the SSW (210 degrees) at 9 MPH (8 knots; 4.1 m/s)
Visibility: 2.80 miles (4.51 km)
Ceiling: 700 feet AGL
Clouds: overcast cloud deck at 700 feet AGL
Weather: -SN BR  (light snow, mist)

METAR text: UTNN 191730Z 20010KT 3000 -SN BR OVC007 M02/M03 Q1010 R15/490629 NOSIG
Conditions at: UTNN (NUKUS/KARAKALPAK, UZ) observed 1730 UTC 19 January 2019
Temperature: -2.0°C (28°F)
Dewpoint: -3.0°C (27°F) [RH = 93%]
Pressure (altimeter): 29.82 inches Hg (1010.0 mb)
Winds: from the SSW (200 degrees) at 12 MPH (10 knots; 5.1 m/s)
Visibility: 1.86 miles (2.99 km)
Ceiling: 700 feet AGL
Clouds: overcast cloud deck at 700 feet AGL
Weather: -SN BR  (light snow, mist)

Forecast for: UTNN (NUKUS/KARAKALPAK, UZ)
Text: TAF UTNN 210500Z 2106/2206 24010G20KT 5000 BR OVC010
Forecast period: 0600 UTC 21 January 2019 to 0600 UTC 22 January 2019
Forecast type: FROM: standard forecast or significant change
Winds: from the WSW (240 degrees) at 12 MPH (10 knots; 5.1 m/s)
gusting to 23 MPH (20 knots; 10.3 m/s)
Visibility: 3 miles (5 km)
Ceiling: 1000 feet AGL
Clouds: overcast cloud deck at 1000 feet AGL
Weather: BR  (mist)
Text: TEMPO 2106/2112 -SNRA OVC005
Forecast period: 0600 to 1200 UTC 21 January 2019
Forecast type: TEMPORARY: The following changes expected for less than half the time period
Visibility: missing
Ceiling: 500 feet AGL
Clouds: overcast cloud deck at 500 feet AGL
Weather: -SN -RA  (light snow, light rain)